sensor_id;sensor_type;location;lat;lon;timestamp;P1;durP1;ratioP1;P2;durP2;ratioP2
82479;SDS011;72105;46.112;12.902;2023-12-20T00:01:35;4.65;;;2.72;;
82479;SDS011;72105;46.112;12.902;2023-12-20T00:04:02;4.38;;;3.00;;
82479;SDS011;72105;46.112;12.902;2023-12-20T00:06:29;4.80;;;2.90;;
82479;SDS011;72105;46.112;12.902;2023-12-20T00:08:55;4.38;;;2.58;;
82479;SDS011;72105;46.112;12.902;2023-12-20T00:11:22;4.20;;;2.42;;
82479;SDS011;72105;46.112;12.902;2023-12-20T00:13:49;3.65;;;2.60;;
82479;SDS011;72105;46.112;12.902;2023-12-20T00:16:15;2.90;;;1.80;;
82479;SDS011;72105;46.112;12.902;2023-12-20T00:18:41;2.20;;;1.83;;
82479;SDS011;72105;46.112;12.902;2023-12-20T00:21:07;3.17;;;1.90;;
82479;SDS011;72105;46.112;12.902;2023-12-20T00:23:33;2.58;;;1.80;;
82479;SDS011;72105;46.112;12.902;2023-12-20T00:25:59;3.70;;;1.85;;
82479;SDS011;72105;46.112;12.902;2023-12-20T00:28:25;2.83;;;1.73;;
82479;SDS011;72105;46.112;12.902;2023-12-20T00:30:51;2.55;;;2.08;;
82479;SDS011;72105;46.112;12.902;2023-12-20T00:33:17;5.78;;;1.75;;
82479;SDS011;72105;46.112;12.902;2023-12-20T00:35:44;2.55;;;1.63;;
82479;SDS011;72105;46.112;12.902;2023-12-20T00:38:10;2.72;;;1.85;;
82479;SDS011;72105;46.112;12.902;2023-12-20T00:40:36;3.40;;;1.77;;
82479;SDS011;72105;46.112;12.902;2023-12-20T00:43:02;2.55;;;1.67;;
82479;SDS011;72105;46.112;12.902;2023-12-20T00:45:29;2.08;;;1.67;;
82479;SDS011;72105;46.112;12.902;2023-12-20T00:47:55;2.10;;;1.40;;
82479;SDS011;72105;46.112;12.902;2023-12-20T00:50:21;3.95;;;1.80;;
82479;SDS011;72105;46.112;12.902;2023-12-20T00:52:47;2.72;;;1.20;;
82479;SDS011;72105;46.112;12.902;2023-12-20T00:55:13;1.98;;;1.35;;
82479;SDS011;72105;46.112;12.902;2023-12-20T00:57:39;2.40;;;1.60;;
82479;SDS011;72105;46.112;12.902;2023-12-20T01:00:06;2.88;;;1.17;;
82479;SDS011;72105;46.112;12.902;2023-12-20T01:02:34;1.75;;;1.30;;
82479;SDS011;72105;46.112;12.902;2023-12-20T01:05:01;1.90;;;1.23;;
82479;SDS011;72105;46.112;12.902;2023-12-20T01:07:27;2.45;;;1.50;;
82479;SDS011;72105;46.112;12.902;2023-12-20T01:09:54;1.77;;;1.30;;
82479;SDS011;72105;46.112;12.902;2023-12-20T01:12:20;2.33;;;1.70;;
82479;SDS011;72105;46.112;12.902;2023-12-20T01:14:46;1.77;;;1.42;;
82479;SDS011;72105;46.112;12.902;2023-12-20T01:17:12;2.15;;;1.52;;
82479;SDS011;72105;46.112;12.902;2023-12-20T01:19:38;2.92;;;1.60;;
82479;SDS011;72105;46.112;12.902;2023-12-20T01:22:04;2.30;;;1.50;;
82479;SDS011;72105;46.112;12.902;2023-12-20T01:24:30;2.00;;;1.30;;
82479;SDS011;72105;46.112;12.902;2023-12-20T01:26:56;2.25;;;1.02;;
82479;SDS011;72105;46.112;12.902;2023-12-20T01:29:22;2.42;;;1.40;;
82479;SDS011;72105;46.112;12.902;2023-12-20T01:31:49;2.05;;;1.20;;
82479;SDS011;72105;46.112;12.902;2023-12-20T01:34:15;2.95;;;1.10;;
82479;SDS011;72105;46.112;12.902;2023-12-20T01:36:41;1.52;;;1.10;;
82479;SDS011;72105;46.112;12.902;2023-12-20T01:39:07;2.63;;;1.45;;
82479;SDS011;72105;46.112;12.902;2023-12-20T01:41:33;2.33;;;1.25;;
82479;SDS011;72105;46.112;12.902;2023-12-20T01:43:59;1.85;;;1.27;;
82479;SDS011;72105;46.112;12.902;2023-12-20T01:46:25;2.30;;;1.27;;
82479;SDS011;72105;46.112;12.902;2023-12-20T01:48:52;1.65;;;1.33;;
82479;SDS011;72105;46.112;12.902;2023-12-20T01:51:18;2.70;;;1.38;;
82479;SDS011;72105;46.112;12.902;2023-12-20T01:53:45;2.80;;;1.40;;
82479;SDS011;72105;46.112;12.902;2023-12-20T01:56:11;4.72;;;1.63;;
82479;SDS011;72105;46.112;12.902;2023-12-20T01:58:39;4.53;;;1.80;;
82479;SDS011;72105;46.112;12.902;2023-12-20T02:01:07;1.75;;;1.33;;
82479;SDS011;72105;46.112;12.902;2023-12-20T02:03:34;2.08;;;1.50;;
82479;SDS011;72105;46.112;12.902;2023-12-20T02:06:02;1.33;;;0.73;;
82479;SDS011;72105;46.112;12.902;2023-12-20T02:08:28;1.13;;;0.95;;
82479;SDS011;72105;46.112;12.902;2023-12-20T02:10:54;1.95;;;0.90;;
82479;SDS011;72105;46.112;12.902;2023-12-20T02:13:21;1.38;;;0.70;;
82479;SDS011;72105;46.112;12.902;2023-12-20T02:15:50;1.02;;;0.85;;
82479;SDS011;72105;46.112;12.902;2023-12-20T02:18:16;1.98;;;1.20;;
82479;SDS011;72105;46.112;12.902;2023-12-20T02:20:42;1.17;;;0.80;;
82479;SDS011;72105;46.112;12.902;2023-12-20T02:23:08;1.13;;;0.93;;
82479;SDS011;72105;46.112;12.902;2023-12-20T02:25:34;0.60;;;0.60;;
82479;SDS011;72105;46.112;12.902;2023-12-20T02:28:01;1.48;;;0.80;;
82479;SDS011;72105;46.112;12.902;2023-12-20T02:30:28;1.27;;;0.95;;
82479;SDS011;72105;46.112;12.902;2023-12-20T02:32:54;1.88;;;1.25;;
82479;SDS011;72105;46.112;12.902;2023-12-20T02:35:20;0.77;;;0.73;;
82479;SDS011;72105;46.112;12.902;2023-12-20T02:37:46;1.40;;;0.82;;
82479;SDS011;72105;46.112;12.902;2023-12-20T02:40:12;1.42;;;0.90;;
82479;SDS011;72105;46.112;12.902;2023-12-20T02:42:38;0.88;;;0.70;;
82479;SDS011;72105;46.112;12.902;2023-12-20T02:45:05;1.58;;;1.30;;
82479;SDS011;72105;46.112;12.902;2023-12-20T02:47:31;1.70;;;0.85;;
82479;SDS011;72105;46.112;12.902;2023-12-20T02:49:57;1.75;;;1.10;;
82479;SDS011;72105;46.112;12.902;2023-12-20T02:52:23;1.25;;;1.15;;
82479;SDS011;72105;46.112;12.902;2023-12-20T02:54:49;1.60;;;1.05;;
82479;SDS011;72105;46.112;12.902;2023-12-20T02:57:16;1.77;;;1.20;;
82479;SDS011;72105;46.112;12.902;2023-12-20T02:59:42;1.90;;;1.35;;
82479;SDS011;72105;46.112;12.902;2023-12-20T03:02:08;1.58;;;1.08;;
82479;SDS011;72105;46.112;12.902;2023-12-20T03:04:34;1.17;;;0.98;;
82479;SDS011;72105;46.112;12.902;2023-12-20T03:07:00;1.85;;;1.27;;
82479;SDS011;72105;46.112;12.902;2023-12-20T03:09:26;1.83;;;1.30;;
82479;SDS011;72105;46.112;12.902;2023-12-20T03:11:52;3.00;;;1.40;;
82479;SDS011;72105;46.112;12.902;2023-12-20T03:14:18;2.05;;;1.55;;
82479;SDS011;72105;46.112;12.902;2023-12-20T03:16:51;1.85;;;1.23;;
82479;SDS011;72105;46.112;12.902;2023-12-20T03:19:20;1.98;;;1.42;;
82479;SDS011;72105;46.112;12.902;2023-12-20T03:21:46;3.67;;;1.20;;
82479;SDS011;72105;46.112;12.902;2023-12-20T03:24:12;1.20;;;1.10;;
82479;SDS011;72105;46.112;12.902;2023-12-20T03:26:38;1.77;;;1.33;;
82479;SDS011;72105;46.112;12.902;2023-12-20T03:29:04;1.80;;;1.13;;
82479;SDS011;72105;46.112;12.902;2023-12-20T03:31:30;1.38;;;0.85;;
82479;SDS011;72105;46.112;12.902;2023-12-20T03:33:56;5.57;;;1.15;;
82479;SDS011;72105;46.112;12.902;2023-12-20T03:36:22;1.02;;;0.98;;
82479;SDS011;72105;46.112;12.902;2023-12-20T03:38:48;1.45;;;1.20;;
82479;SDS011;72105;46.112;12.902;2023-12-20T03:41:14;1.45;;;0.85;;
82479;SDS011;72105;46.112;12.902;2023-12-20T03:43:41;1.13;;;0.98;;
82479;SDS011;72105;46.112;12.902;2023-12-20T03:46:09;2.13;;;1.23;;
82479;SDS011;72105;46.112;12.902;2023-12-20T03:48:36;1.83;;;1.50;;
82479;SDS011;72105;46.112;12.902;2023-12-20T03:51:02;2.35;;;1.25;;
82479;SDS011;72105;46.112;12.902;2023-12-20T03:53:28;1.27;;;1.17;;
82479;SDS011;72105;46.112;12.902;2023-12-20T03:55:54;1.88;;;1.08;;
82479;SDS011;72105;46.112;12.902;2023-12-20T03:58:20;3.17;;;1.60;;
82479;SDS011;72105;46.112;12.902;2023-12-20T04:00:46;1.98;;;1.30;;
82479;SDS011;72105;46.112;12.902;2023-12-20T04:03:12;1.98;;;1.55;;
82479;SDS011;72105;46.112;12.902;2023-12-20T04:05:41;2.70;;;0.80;;
82479;SDS011;72105;46.112;12.902;2023-12-20T04:08:08;0.85;;;0.60;;
82479;SDS011;72105;46.112;12.902;2023-12-20T04:10:34;1.40;;;1.30;;
82479;SDS011;72105;46.112;12.902;2023-12-20T04:13:00;1.80;;;1.30;;
82479;SDS011;72105;46.112;12.902;2023-12-20T04:15:26;2.55;;;1.48;;
82479;SDS011;72105;46.112;12.902;2023-12-20T04:17:52;2.47;;;1.17;;
82479;SDS011;72105;46.112;12.902;2023-12-20T04:20:18;1.83;;;1.13;;
82479;SDS011;72105;46.112;12.902;2023-12-20T04:22:44;1.52;;;1.13;;
82479;SDS011;72105;46.112;12.902;2023-12-20T04:25:11;2.13;;;1.27;;
82479;SDS011;72105;46.112;12.902;2023-12-20T04:27:37;1.20;;;1.10;;
82479;SDS011;72105;46.112;12.902;2023-12-20T04:30:03;1.30;;;1.15;;
82479;SDS011;72105;46.112;12.902;2023-12-20T04:32:29;2.80;;;1.10;;
82479;SDS011;72105;46.112;12.902;2023-12-20T04:34:56;3.15;;;1.25;;
82479;SDS011;72105;46.112;12.902;2023-12-20T04:37:22;0.82;;;0.82;;
82479;SDS011;72105;46.112;12.902;2023-12-20T04:39:48;1.65;;;1.10;;
82479;SDS011;72105;46.112;12.902;2023-12-20T04:42:15;1.50;;;1.40;;
82479;SDS011;72105;46.112;12.902;2023-12-20T04:44:41;1.90;;;0.93;;
82479;SDS011;72105;46.112;12.902;2023-12-20T04:47:08;1.52;;;1.02;;
82479;SDS011;72105;46.112;12.902;2023-12-20T04:49:35;2.50;;;1.20;;
82479;SDS011;72105;46.112;12.902;2023-12-20T04:52:01;1.42;;;1.25;;
82479;SDS011;72105;46.112;12.902;2023-12-20T04:54:27;1.05;;;0.95;;
82479;SDS011;72105;46.112;12.902;2023-12-20T04:56:53;1.50;;;1.20;;
82479;SDS011;72105;46.112;12.902;2023-12-20T04:59:19;0.60;;;0.60;;
82479;SDS011;72105;46.112;12.902;2023-12-20T05:01:45;1.05;;;0.95;;
82479;SDS011;72105;46.112;12.902;2023-12-20T05:04:11;1.40;;;1.05;;
82479;SDS011;72105;46.112;12.902;2023-12-20T05:06:37;2.53;;;0.90;;
82479;SDS011;72105;46.112;12.902;2023-12-20T05:09:03;1.10;;;0.73;;
82479;SDS011;72105;46.112;12.902;2023-12-20T05:11:30;1.85;;;0.95;;
82479;SDS011;72105;46.112;12.902;2023-12-20T05:13:56;1.30;;;0.70;;
82479;SDS011;72105;46.112;12.902;2023-12-20T05:16:22;0.95;;;0.70;;
82479;SDS011;72105;46.112;12.902;2023-12-20T05:18:48;2.10;;;1.25;;
82479;SDS011;72105;46.112;12.902;2023-12-20T05:21:15;1.00;;;0.65;;
82479;SDS011;72105;46.112;12.902;2023-12-20T05:23:41;1.45;;;0.80;;
82479;SDS011;72105;46.112;12.902;2023-12-20T05:26:07;0.88;;;0.88;;
82479;SDS011;72105;46.112;12.902;2023-12-20T05:28:33;1.95;;;1.08;;
82479;SDS011;72105;46.112;12.902;2023-12-20T05:30:59;1.58;;;1.17;;
82479;SDS011;72105;46.112;12.902;2023-12-20T05:33:26;2.17;;;0.90;;
82479;SDS011;72105;46.112;12.902;2023-12-20T05:35:52;1.75;;;1.02;;
82479;SDS011;72105;46.112;12.902;2023-12-20T05:38:18;2.20;;;1.10;;
82479;SDS011;72105;46.112;12.902;2023-12-20T05:40:44;1.30;;;1.00;;
82479;SDS011;72105;46.112;12.902;2023-12-20T05:43:10;1.67;;;1.10;;
82479;SDS011;72105;46.112;12.902;2023-12-20T05:45:36;1.77;;;0.85;;
82479;SDS011;72105;46.112;12.902;2023-12-20T05:48:02;2.25;;;0.80;;
82479;SDS011;72105;46.112;12.902;2023-12-20T05:50:28;1.33;;;0.98;;
82479;SDS011;72105;46.112;12.902;2023-12-20T05:52:55;2.58;;;0.90;;
82479;SDS011;72105;46.112;12.902;2023-12-20T05:55:21;1.05;;;0.85;;
82479;SDS011;72105;46.112;12.902;2023-12-20T05:57:47;1.33;;;1.00;;
82479;SDS011;72105;46.112;12.902;2023-12-20T06:00:13;1.15;;;1.05;;
82479;SDS011;72105;46.112;12.902;2023-12-20T06:02:40;1.20;;;1.08;;
82479;SDS011;72105;46.112;12.902;2023-12-20T06:05:07;0.77;;;0.70;;
82479;SDS011;72105;46.112;12.902;2023-12-20T06:07:33;1.65;;;1.02;;
82479;SDS011;72105;46.112;12.902;2023-12-20T06:09:59;1.30;;;0.80;;
82479;SDS011;72105;46.112;12.902;2023-12-20T06:12:25;4.45;;;1.00;;
82479;SDS011;72105;46.112;12.902;2023-12-20T06:14:54;2.45;;;1.08;;
82479;SDS011;72105;46.112;12.902;2023-12-20T06:17:20;1.80;;;1.20;;
82479;SDS011;72105;46.112;12.902;2023-12-20T06:19:46;2.20;;;1.00;;
82479;SDS011;72105;46.112;12.902;2023-12-20T06:22:13;0.93;;;0.80;;
82479;SDS011;72105;46.112;12.902;2023-12-20T06:24:39;0.88;;;0.75;;
82479;SDS011;72105;46.112;12.902;2023-12-20T06:27:05;1.15;;;0.90;;
82479;SDS011;72105;46.112;12.902;2023-12-20T06:29:31;1.35;;;0.70;;
82479;SDS011;72105;46.112;12.902;2023-12-20T06:31:57;1.17;;;1.02;;
82479;SDS011;72105;46.112;12.902;2023-12-20T06:34:24;1.45;;;0.80;;
82479;SDS011;72105;46.112;12.902;2023-12-20T06:36:50;1.60;;;1.30;;
82479;SDS011;72105;46.112;12.902;2023-12-20T06:39:16;1.50;;;1.40;;
82479;SDS011;72105;46.112;12.902;2023-12-20T06:41:42;2.75;;;1.50;;
82479;SDS011;72105;46.112;12.902;2023-12-20T06:44:08;1.70;;;1.08;;
82479;SDS011;72105;46.112;12.902;2023-12-20T06:46:34;2.90;;;1.42;;
82479;SDS011;72105;46.112;12.902;2023-12-20T06:49:00;2.65;;;2.05;;
82479;SDS011;72105;46.112;12.902;2023-12-20T06:51:27;3.45;;;2.30;;
82479;SDS011;72105;46.112;12.902;2023-12-20T06:53:53;30.67;;;13.25;;
82479;SDS011;72105;46.112;12.902;2023-12-20T06:56:19;20.02;;;10.35;;
82479;SDS011;72105;46.112;12.902;2023-12-20T06:58:45;5.90;;;3.90;;
82479;SDS011;72105;46.112;12.902;2023-12-20T07:01:14;8.52;;;3.95;;
82479;SDS011;72105;46.112;12.902;2023-12-20T07:03:41;2.30;;;1.70;;
82479;SDS011;72105;46.112;12.902;2023-12-20T07:06:07;2.10;;;1.70;;
82479;SDS011;72105;46.112;12.902;2023-12-20T07:08:33;3.50;;;2.00;;
82479;SDS011;72105;46.112;12.902;2023-12-20T07:10:59;6.10;;;2.45;;
82479;SDS011;72105;46.112;12.902;2023-12-20T07:13:26;8.75;;;2.80;;
82479;SDS011;72105;46.112;12.902;2023-12-20T07:15:52;4.75;;;2.75;;
82479;SDS011;72105;46.112;12.902;2023-12-20T07:18:18;4.57;;;2.88;;
82479;SDS011;72105;46.112;12.902;2023-12-20T07:20:44;3.88;;;1.92;;
82479;SDS011;72105;46.112;12.902;2023-12-20T07:23:10;3.78;;;1.77;;
82479;SDS011;72105;46.112;12.902;2023-12-20T07:25:36;2.72;;;1.40;;
82479;SDS011;72105;46.112;12.902;2023-12-20T07:28:02;2.05;;;1.10;;
82479;SDS011;72105;46.112;12.902;2023-12-20T07:30:28;0.95;;;0.57;;
82479;SDS011;72105;46.112;12.902;2023-12-20T07:32:55;1.42;;;1.33;;
82479;SDS011;72105;46.112;12.902;2023-12-20T07:35:23;2.30;;;1.50;;
82479;SDS011;72105;46.112;12.902;2023-12-20T07:37:50;2.25;;;1.77;;
82479;SDS011;72105;46.112;12.902;2023-12-20T07:40:16;4.53;;;1.70;;
82479;SDS011;72105;46.112;12.902;2023-12-20T07:42:42;1.88;;;1.23;;
82479;SDS011;72105;46.112;12.902;2023-12-20T07:45:08;2.58;;;1.52;;
82479;SDS011;72105;46.112;12.902;2023-12-20T07:47:35;2.92;;;1.35;;
82479;SDS011;72105;46.112;12.902;2023-12-20T07:50:05;3.25;;;2.03;;
82479;SDS011;72105;46.112;12.902;2023-12-20T07:52:32;2.10;;;1.33;;
82479;SDS011;72105;46.112;12.902;2023-12-20T07:54:58;2.47;;;1.60;;
82479;SDS011;72105;46.112;12.902;2023-12-20T07:57:24;2.63;;;1.10;;
82479;SDS011;72105;46.112;12.902;2023-12-20T07:59:50;4.70;;;1.30;;
82479;SDS011;72105;46.112;12.902;2023-12-20T08:02:16;1.35;;;0.98;;
82479;SDS011;72105;46.112;12.902;2023-12-20T08:04:42;1.40;;;0.98;;
82479;SDS011;72105;46.112;12.902;2023-12-20T08:07:08;2.75;;;1.40;;
82479;SDS011;72105;46.112;12.902;2023-12-20T08:09:34;1.13;;;1.00;;
82479;SDS011;72105;46.112;12.902;2023-12-20T08:12:01;3.80;;;2.28;;
82479;SDS011;72105;46.112;12.902;2023-12-20T08:14:28;7.00;;;2.63;;
82479;SDS011;72105;46.112;12.902;2023-12-20T08:16:54;6.20;;;3.28;;
82479;SDS011;72105;46.112;12.902;2023-12-20T08:19:20;6.40;;;2.30;;
82479;SDS011;72105;46.112;12.902;2023-12-20T08:21:46;4.38;;;2.50;;
82479;SDS011;72105;46.112;12.902;2023-12-20T08:24:12;5.25;;;3.15;;
82479;SDS011;72105;46.112;12.902;2023-12-20T08:26:38;6.28;;;3.47;;
82479;SDS011;72105;46.112;12.902;2023-12-20T08:29:04;9.93;;;5.45;;
82479;SDS011;72105;46.112;12.902;2023-12-20T08:31:30;8.68;;;4.90;;
82479;SDS011;72105;46.112;12.902;2023-12-20T08:33:56;7.05;;;4.25;;
82479;SDS011;72105;46.112;12.902;2023-12-20T08:36:23;5.45;;;3.30;;
82479;SDS011;72105;46.112;12.902;2023-12-20T08:38:49;4.65;;;2.92;;
82479;SDS011;72105;46.112;12.902;2023-12-20T08:41:16;5.18;;;2.70;;
82479;SDS011;72105;46.112;12.902;2023-12-20T08:43:42;4.63;;;2.92;;
82479;SDS011;72105;46.112;12.902;2023-12-20T08:46:08;4.60;;;1.95;;
82479;SDS011;72105;46.112;12.902;2023-12-20T08:48:35;4.38;;;2.17;;
82479;SDS011;72105;46.112;12.902;2023-12-20T08:51:01;2.30;;;2.08;;
82479;SDS011;72105;46.112;12.902;2023-12-20T08:53:28;1.85;;;1.23;;
82479;SDS011;72105;46.112;12.902;2023-12-20T08:55:54;2.90;;;1.92;;
82479;SDS011;72105;46.112;12.902;2023-12-20T08:58:21;2.08;;;1.65;;
82479;SDS011;72105;46.112;12.902;2023-12-20T09:00:47;2.42;;;1.80;;
82479;SDS011;72105;46.112;12.902;2023-12-20T09:03:13;4.22;;;2.83;;
82479;SDS011;72105;46.112;12.902;2023-12-20T09:05:39;5.43;;;3.10;;
82479;SDS011;72105;46.112;12.902;2023-12-20T09:08:05;3.70;;;2.10;;
82479;SDS011;72105;46.112;12.902;2023-12-20T09:10:32;4.38;;;1.75;;
82479;SDS011;72105;46.112;12.902;2023-12-20T09:12:59;3.75;;;1.55;;
82479;SDS011;72105;46.112;12.902;2023-12-20T09:15:25;2.35;;;1.60;;
82479;SDS011;72105;46.112;12.902;2023-12-20T09:17:51;2.25;;;1.30;;
82479;SDS011;72105;46.112;12.902;2023-12-20T09:20:17;2.08;;;1.30;;
82479;SDS011;72105;46.112;12.902;2023-12-20T09:22:44;1.80;;;1.30;;
82479;SDS011;72105;46.112;12.902;2023-12-20T09:25:10;3.15;;;1.75;;
82479;SDS011;72105;46.112;12.902;2023-12-20T09:27:37;3.25;;;2.10;;
82479;SDS011;72105;46.112;12.902;2023-12-20T09:30:04;3.58;;;1.88;;
82479;SDS011;72105;46.112;12.902;2023-12-20T09:32:30;2.92;;;2.08;;
82479;SDS011;72105;46.112;12.902;2023-12-20T09:34:57;2.03;;;1.48;;
82479;SDS011;72105;46.112;12.902;2023-12-20T09:37:26;3.05;;;1.63;;
82479;SDS011;72105;46.112;12.902;2023-12-20T09:39:53;1.45;;;1.25;;
82479;SDS011;72105;46.112;12.902;2023-12-20T09:45:15;3.95;;;1.33;;
82479;SDS011;72105;46.112;12.902;2023-12-20T09:47:43;2.50;;;1.83;;
82479;SDS011;72105;46.112;12.902;2023-12-20T09:50:09;2.20;;;1.50;;
82479;SDS011;72105;46.112;12.902;2023-12-20T09:52:36;3.15;;;1.77;;
82479;SDS011;72105;46.112;12.902;2023-12-20T09:55:03;3.13;;;1.92;;
82479;SDS011;72105;46.112;12.902;2023-12-20T09:57:34;4.35;;;2.38;;
82479;SDS011;72105;46.112;12.902;2023-12-20T10:00:00;3.10;;;2.42;;
82479;SDS011;72105;46.112;12.902;2023-12-20T10:02:26;4.10;;;2.80;;
82479;SDS011;72105;46.112;12.902;2023-12-20T10:04:54;4.70;;;2.53;;
82479;SDS011;72105;46.112;12.902;2023-12-20T10:07:20;3.63;;;2.28;;
82479;SDS011;72105;46.112;12.902;2023-12-20T10:09:47;3.15;;;1.98;;
82479;SDS011;72105;46.112;12.902;2023-12-20T10:12:13;4.03;;;1.95;;
82479;SDS011;72105;46.112;12.902;2023-12-20T10:14:40;2.78;;;1.80;;
82479;SDS011;72105;46.112;12.902;2023-12-20T10:17:06;3.58;;;1.70;;
82479;SDS011;72105;46.112;12.902;2023-12-20T10:19:32;5.38;;;2.20;;
82479;SDS011;72105;46.112;12.902;2023-12-20T10:21:59;3.13;;;1.88;;
82479;SDS011;72105;46.112;12.902;2023-12-20T10:24:25;2.85;;;2.13;;
82479;SDS011;72105;46.112;12.902;2023-12-20T10:27:00;4.32;;;1.88;;
82479;SDS011;72105;46.112;12.902;2023-12-20T10:29:31;6.03;;;1.73;;
82479;SDS011;72105;46.112;12.902;2023-12-20T10:31:57;6.55;;;2.42;;
82479;SDS011;72105;46.112;12.902;2023-12-20T10:34:23;3.45;;;2.85;;
82479;SDS011;72105;46.112;12.902;2023-12-20T10:36:49;13.57;;;6.03;;
82479;SDS011;72105;46.112;12.902;2023-12-20T10:39:16;6.95;;;3.17;;
82479;SDS011;72105;46.112;12.902;2023-12-20T10:41:45;5.78;;;2.78;;
82479;SDS011;72105;46.112;12.902;2023-12-20T10:44:11;4.65;;;2.60;;
82479;SDS011;72105;46.112;12.902;2023-12-20T10:46:38;3.20;;;2.03;;
82479;SDS011;72105;46.112;12.902;2023-12-20T10:49:05;6.30;;;2.40;;
82479;SDS011;72105;46.112;12.902;2023-12-20T10:51:32;7.63;;;4.88;;
82479;SDS011;72105;46.112;12.902;2023-12-20T10:54:00;4.00;;;2.25;;
82479;SDS011;72105;46.112;12.902;2023-12-20T10:56:26;3.00;;;1.98;;
82479;SDS011;72105;46.112;12.902;2023-12-20T10:58:56;2.28;;;2.00;;
82479;SDS011;72105;46.112;12.902;2023-12-20T11:01:24;6.20;;;2.28;;
82479;SDS011;72105;46.112;12.902;2023-12-20T11:03:51;3.90;;;1.90;;
82479;SDS011;72105;46.112;12.902;2023-12-20T11:14:26;4.65;;;2.58;;
82479;SDS011;72105;46.112;12.902;2023-12-20T11:17:08;5.38;;;2.10;;
82479;SDS011;72105;46.112;12.902;2023-12-20T11:19:36;3.70;;;1.83;;
82479;SDS011;72105;46.112;12.902;2023-12-20T11:22:03;5.47;;;2.35;;
82479;SDS011;72105;46.112;12.902;2023-12-20T11:24:31;4.32;;;2.60;;
82479;SDS011;72105;46.112;12.902;2023-12-20T11:26:59;4.95;;;2.40;;
82479;SDS011;72105;46.112;12.902;2023-12-20T11:29:35;4.22;;;2.88;;
82479;SDS011;72105;46.112;12.902;2023-12-20T11:32:02;3.38;;;2.45;;
82479;SDS011;72105;46.112;12.902;2023-12-20T11:34:32;4.05;;;2.35;;
82479;SDS011;72105;46.112;12.902;2023-12-20T11:36:59;8.07;;;3.15;;
82479;SDS011;72105;46.112;12.902;2023-12-20T11:39:26;5.20;;;3.92;;
82479;SDS011;72105;46.112;12.902;2023-12-20T11:44:19;8.35;;;4.63;;
82479;SDS011;72105;46.112;12.902;2023-12-20T11:46:45;9.48;;;4.30;;
82479;SDS011;72105;46.112;12.902;2023-12-20T11:49:12;8.00;;;5.28;;
82479;SDS011;72105;46.112;12.902;2023-12-20T11:51:41;7.10;;;4.47;;
82479;SDS011;72105;46.112;12.902;2023-12-20T11:54:08;7.30;;;4.68;;
82479;SDS011;72105;46.112;12.902;2023-12-20T11:59:02;9.20;;;6.18;;
82479;SDS011;72105;46.112;12.902;2023-12-20T12:01:28;9.15;;;6.28;;
82479;SDS011;72105;46.112;12.902;2023-12-20T12:04:04;10.00;;;6.95;;
82479;SDS011;72105;46.112;12.902;2023-12-20T12:06:30;14.15;;;7.07;;
82479;SDS011;72105;46.112;12.902;2023-12-20T12:08:56;14.27;;;8.88;;
82479;SDS011;72105;46.112;12.902;2023-12-20T12:11:22;13.27;;;8.63;;
82479;SDS011;72105;46.112;12.902;2023-12-20T12:13:49;13.98;;;8.98;;
82479;SDS011;72105;46.112;12.902;2023-12-20T12:16:22;13.70;;;8.85;;
82479;SDS011;72105;46.112;12.902;2023-12-20T12:18:57;15.00;;;9.73;;
82479;SDS011;72105;46.112;12.902;2023-12-20T12:21:23;14.73;;;8.85;;
82479;SDS011;72105;46.112;12.902;2023-12-20T12:23:49;16.23;;;10.10;;
82479;SDS011;72105;46.112;12.902;2023-12-20T12:26:15;15.13;;;9.73;;
82479;SDS011;72105;46.112;12.902;2023-12-20T12:28:42;17.05;;;10.35;;
82479;SDS011;72105;46.112;12.902;2023-12-20T12:31:14;16.20;;;9.43;;
82479;SDS011;72105;46.112;12.902;2023-12-20T12:33:40;15.70;;;9.48;;
82479;SDS011;72105;46.112;12.902;2023-12-20T12:36:07;17.55;;;10.93;;
82479;SDS011;72105;46.112;12.902;2023-12-20T12:38:33;18.52;;;11.65;;
82479;SDS011;72105;46.112;12.902;2023-12-20T12:41:00;17.10;;;11.80;;
82479;SDS011;72105;46.112;12.902;2023-12-20T12:43:26;20.52;;;11.90;;
82479;SDS011;72105;46.112;12.902;2023-12-20T12:45:53;19.90;;;12.18;;
82479;SDS011;72105;46.112;12.902;2023-12-20T12:48:20;17.58;;;10.80;;
82479;SDS011;72105;46.112;12.902;2023-12-20T12:50:47;15.20;;;10.40;;
82479;SDS011;72105;46.112;12.902;2023-12-20T12:53:13;13.02;;;8.25;;
82479;SDS011;72105;46.112;12.902;2023-12-20T12:55:39;15.00;;;9.85;;
82479;SDS011;72105;46.112;12.902;2023-12-20T12:58:05;13.05;;;9.27;;
82479;SDS011;72105;46.112;12.902;2023-12-20T13:00:31;13.75;;;8.85;;
82479;SDS011;72105;46.112;12.902;2023-12-20T13:02:58;14.27;;;9.10;;
82479;SDS011;72105;46.112;12.902;2023-12-20T13:05:24;15.93;;;10.15;;
82479;SDS011;72105;46.112;12.902;2023-12-20T13:07:50;16.55;;;9.50;;
82479;SDS011;72105;46.112;12.902;2023-12-20T13:10:16;15.02;;;9.73;;
82479;SDS011;72105;46.112;12.902;2023-12-20T13:12:43;18.33;;;11.43;;
82479;SDS011;72105;46.112;12.902;2023-12-20T13:15:09;14.55;;;10.55;;
82479;SDS011;72105;46.112;12.902;2023-12-20T13:17:35;17.67;;;12.18;;
82479;SDS011;72105;46.112;12.902;2023-12-20T13:20:02;20.65;;;12.80;;
82479;SDS011;72105;46.112;12.902;2023-12-20T13:22:28;16.98;;;12.25;;
82479;SDS011;72105;46.112;12.902;2023-12-20T13:24:54;21.00;;;11.52;;
82479;SDS011;72105;46.112;12.902;2023-12-20T13:27:20;19.63;;;11.90;;
82479;SDS011;72105;46.112;12.902;2023-12-20T13:29:47;20.45;;;12.30;;
82479;SDS011;72105;46.112;12.902;2023-12-20T13:32:13;21.15;;;12.73;;
82479;SDS011;72105;46.112;12.902;2023-12-20T13:34:39;23.05;;;12.73;;
82479;SDS011;72105;46.112;12.902;2023-12-20T13:37:05;19.83;;;12.48;;
82479;SDS011;72105;46.112;12.902;2023-12-20T13:39:31;21.02;;;12.55;;
82479;SDS011;72105;46.112;12.902;2023-12-20T13:41:58;22.38;;;13.20;;
82479;SDS011;72105;46.112;12.902;2023-12-20T13:44:24;19.63;;;12.77;;
82479;SDS011;72105;46.112;12.902;2023-12-20T13:46:50;22.52;;;12.80;;
82479;SDS011;72105;46.112;12.902;2023-12-20T13:49:16;20.52;;;13.35;;
82479;SDS011;72105;46.112;12.902;2023-12-20T13:51:42;22.13;;;14.20;;
82479;SDS011;72105;46.112;12.902;2023-12-20T13:54:08;25.88;;;14.70;;
82479;SDS011;72105;46.112;12.902;2023-12-20T13:56:36;24.10;;;14.82;;
82479;SDS011;72105;46.112;12.902;2023-12-20T13:59:02;23.15;;;14.30;;
82479;SDS011;72105;46.112;12.902;2023-12-20T14:01:28;22.95;;;14.65;;
82479;SDS011;72105;46.112;12.902;2023-12-20T14:03:54;25.20;;;15.68;;
82479;SDS011;72105;46.112;12.902;2023-12-20T14:06:20;27.35;;;16.52;;
82479;SDS011;72105;46.112;12.902;2023-12-20T14:08:46;27.38;;;15.77;;
82479;SDS011;72105;46.112;12.902;2023-12-20T14:11:13;25.13;;;16.27;;
82479;SDS011;72105;46.112;12.902;2023-12-20T14:13:40;23.88;;;14.82;;
82479;SDS011;72105;46.112;12.902;2023-12-20T14:16:06;26.83;;;16.90;;
82479;SDS011;72105;46.112;12.902;2023-12-20T14:18:33;23.33;;;14.65;;
82479;SDS011;72105;46.112;12.902;2023-12-20T14:20:59;27.15;;;16.42;;
82479;SDS011;72105;46.112;12.902;2023-12-20T14:23:25;25.33;;;14.73;;
82479;SDS011;72105;46.112;12.902;2023-12-20T14:25:51;26.60;;;16.15;;
82479;SDS011;72105;46.112;12.902;2023-12-20T14:28:17;26.17;;;15.98;;
82479;SDS011;72105;46.112;12.902;2023-12-20T14:30:43;25.92;;;17.02;;
82479;SDS011;72105;46.112;12.902;2023-12-20T14:33:09;29.00;;;16.98;;
82479;SDS011;72105;46.112;12.902;2023-12-20T14:35:35;28.35;;;17.20;;
82479;SDS011;72105;46.112;12.902;2023-12-20T14:38:02;24.63;;;15.27;;
82479;SDS011;72105;46.112;12.902;2023-12-20T14:40:28;27.45;;;16.77;;
82479;SDS011;72105;46.112;12.902;2023-12-20T14:42:54;28.52;;;17.48;;